EGAE - Eglinton-Londonderr
Distance from station: E 5mi, 14km
Updated: 01/23/2018 9:20am
Few Clouds
Few Clouds
 Wind from SW
Wind: SW 13 mph , 20 km/h
Temperature: 45°F , 7°C
Wind Chill: 39°F , 4°C
Dew Point: 41°F , 5°C
Humidity: 87%
Barometer: 29.53 inHg , 1000 hPa
Clouds: Few Clouds
Visibility: 6 miles , 10 km
Cloud details: Few Clouds 2400 ft
2018/01/23 17:20 EGAE 231720Z 22011KT 9999 FEW024 07/05 Q1000